createdAt,value
2018-12-14T00:01:08.109Z,88.52
2018-12-14T00:03:34.283Z,89.16
2018-12-14T00:06:00.157Z,89.11
2018-12-14T00:08:26.091Z,89.34
2018-12-14T00:10:51.967Z,89.46
2018-12-14T00:13:17.982Z,89.75
2018-12-14T00:15:43.895Z,89.94
2018-12-14T00:18:09.854Z,89.46
2018-12-14T00:20:35.745Z,89.30
2018-12-14T00:23:01.624Z,89.77
2018-12-14T00:25:27.543Z,89.77
2018-12-14T00:27:53.444Z,89.62
2018-12-14T00:30:19.431Z,89.47
2018-12-14T00:32:45.333Z,89.07
2018-12-14T00:35:11.282Z,89.28
2018-12-14T00:37:37.186Z,89.59
2018-12-14T00:40:04.070Z,89.97
2018-12-14T00:42:29.934Z,89.85
2018-12-14T00:44:55.825Z,90.17
2018-12-14T00:47:21.759Z,89.80
2018-12-14T00:49:47.629Z,90.22
2018-12-14T00:52:13.587Z,90.37
2018-12-14T00:54:39.565Z,90.58
2018-12-14T00:57:05.455Z,89.99
2018-12-14T00:59:31.307Z,90.62
2018-12-14T01:01:57.207Z,90.68
2018-12-14T01:04:23.087Z,90.19
2018-12-14T01:06:49.015Z,90.63
2018-12-14T01:09:14.923Z,90.56
2018-12-14T01:11:40.932Z,90.33
2018-12-14T01:14:06.795Z,90.74
2018-12-14T01:16:32.818Z,90.93
2018-12-14T01:18:58.715Z,91.12
2018-12-14T01:21:24.565Z,90.40
2018-12-14T01:23:50.520Z,90.34
2018-12-14T01:26:16.421Z,90.61
2018-12-14T01:28:42.321Z,90.16
2018-12-14T01:31:08.212Z,90.71
2018-12-14T01:33:34.281Z,90.42
2018-12-14T01:36:00.164Z,90.62
2018-12-14T01:38:26.018Z,90.46
2018-12-14T01:40:51.930Z,90.24
2018-12-14T01:43:17.819Z,90.47
2018-12-14T01:45:43.698Z,90.65
2018-12-14T01:48:09.602Z,90.38
2018-12-14T01:50:35.498Z,90.23
2018-12-14T01:53:01.358Z,90.81
2018-12-14T01:55:27.210Z,91.02
2018-12-14T01:57:53.231Z,91.00
2018-12-14T02:00:19.171Z,90.70
2018-12-14T02:02:45.154Z,90.83
2018-12-14T02:05:11.015Z,90.71
2018-12-14T02:07:37.102Z,90.56
2018-12-14T02:10:03.398Z,91.08
2018-12-14T02:12:29.286Z,91.74
2018-12-14T02:14:55.188Z,91.44
2018-12-14T02:17:21.055Z,91.87
2018-12-14T02:19:46.972Z,91.73
2018-12-14T02:22:12.934Z,91.50
2018-12-14T02:24:38.851Z,91.52
2018-12-14T02:27:04.888Z,91.94
2018-12-14T02:29:30.845Z,91.49
2018-12-14T02:31:56.730Z,91.56
2018-12-14T02:34:22.600Z,91.38
2018-12-14T02:36:48.551Z,91.57
2018-12-14T02:39:14.424Z,91.45
2018-12-14T02:41:40.317Z,91.38
2018-12-14T02:44:06.235Z,91.44
2018-12-14T02:46:32.114Z,91.48
2018-12-14T02:48:58.015Z,90.76
2018-12-14T02:51:23.907Z,91.33
2018-12-14T02:53:49.794Z,91.19
2018-12-14T02:56:15.683Z,90.97
2018-12-14T02:58:41.709Z,91.89
2018-12-14T03:01:07.603Z,91.68
2018-12-14T03:03:33.491Z,91.61
2018-12-14T03:05:59.361Z,91.60
2018-12-14T03:08:25.342Z,91.61
2018-12-14T03:10:51.298Z,91.19
2018-12-14T03:13:17.204Z,91.12
2018-12-14T03:15:43.090Z,91.37
2018-12-14T03:18:09.017Z,91.12
2018-12-14T03:20:34.997Z,91.02
2018-12-14T03:23:00.974Z,90.98
2018-12-14T03:25:26.974Z,91.01
2018-12-14T03:27:52.943Z,90.95
2018-12-14T03:30:18.828Z,90.63
2018-12-14T03:32:44.741Z,90.98
2018-12-14T03:35:10.658Z,90.53
2018-12-14T03:37:36.535Z,91.00
2018-12-14T03:40:03.591Z,90.73
2018-12-14T03:42:34.397Z,90.84
2018-12-14T03:44:57.548Z,90.96
2018-12-14T03:47:24.334Z,90.73
2018-12-14T03:49:50.211Z,90.21
2018-12-14T03:52:16.189Z,90.21
2018-12-14T03:54:42.134Z,90.59
2018-12-14T03:57:08.057Z,90.63
2018-12-14T03:59:34.024Z,90.51
2018-12-14T04:01:59.941Z,90.65
2018-12-14T04:04:25.842Z,90.53
2018-12-14T04:06:51.740Z,89.67
2018-12-14T04:09:17.674Z,89.50
2018-12-14T04:11:43.571Z,89.75
2018-12-14T04:14:09.444Z,89.62
2018-12-14T04:16:35.351Z,89.55
2018-12-14T04:19:01.358Z,89.72
2018-12-14T04:21:34.347Z,89.50
2018-12-14T04:24:00.211Z,89.80
2018-12-14T04:26:26.262Z,89.82
2018-12-14T04:28:52.154Z,89.14
2018-12-14T04:31:18.023Z,89.61
2018-12-14T04:33:44.093Z,88.91
2018-12-14T04:36:09.978Z,89.88
2018-12-14T04:38:35.886Z,89.06
2018-12-14T04:41:01.856Z,88.73
2018-12-14T04:43:34.714Z,89.06
2018-12-14T04:46:00.605Z,88.44
2018-12-14T04:48:26.530Z,89.27
2018-12-14T04:50:52.422Z,88.57
2018-12-14T04:53:18.326Z,88.78
2018-12-14T04:55:44.207Z,88.69
2018-12-14T04:58:10.106Z,88.76
2018-12-14T05:00:36.010Z,88.41
2018-12-14T05:03:01.908Z,89.22
2018-12-14T05:05:27.778Z,88.73
2018-12-14T05:07:53.683Z,88.91
2018-12-14T05:10:19.570Z,89.62
2018-12-14T05:12:45.525Z,88.94
2018-12-14T05:15:11.467Z,89.11
2018-12-14T05:17:37.467Z,89.09
2018-12-14T05:20:04.648Z,90.05
2018-12-14T05:22:30.511Z,88.47
2018-12-14T05:24:56.385Z,89.60
2018-12-14T05:27:22.385Z,89.10
2018-12-14T05:29:48.614Z,88.75
2018-12-14T05:32:14.492Z,88.50
2018-12-14T05:34:40.339Z,88.76
2018-12-14T05:37:06.224Z,88.57
2018-12-14T05:39:32.097Z,88.22
2018-12-14T05:41:58.116Z,88.37
2018-12-14T05:44:23.991Z,88.09
2018-12-14T05:46:49.870Z,88.09
2018-12-14T05:49:15.785Z,88.38
2018-12-14T05:51:41.648Z,88.18
2018-12-14T05:54:07.498Z,87.43
2018-12-14T05:56:33.486Z,87.69
2018-12-14T05:58:59.414Z,88.10
2018-12-14T06:01:25.318Z,87.84
2018-12-14T06:03:51.651Z,86.94
2018-12-14T06:06:17.570Z,87.77
2018-12-14T06:08:43.446Z,87.81
2018-12-14T06:11:09.345Z,87.39
2018-12-14T06:13:35.248Z,87.41
2018-12-14T06:16:01.166Z,87.79
2018-12-14T06:18:27.031Z,87.28
2018-12-14T06:20:52.921Z,86.97
2018-12-14T06:23:18.783Z,87.75
2018-12-14T06:25:44.649Z,87.75
2018-12-14T06:28:10.540Z,87.48
2018-12-14T06:30:36.557Z,86.64
2018-12-14T06:33:02.434Z,86.57
2018-12-14T06:35:28.331Z,87.23
2018-12-14T06:37:54.222Z,87.14
2018-12-14T06:40:20.123Z,87.26
2018-12-14T06:42:46.024Z,87.12
2018-12-14T06:45:12.377Z,86.94
2018-12-14T06:47:38.273Z,86.79
2018-12-14T06:50:04.804Z,87.79
2018-12-14T06:52:30.713Z,86.99
2018-12-14T06:54:56.614Z,86.51
2018-12-14T06:57:22.583Z,87.24
2018-12-14T06:59:48.465Z,87.94
2018-12-14T07:02:14.344Z,87.67
2018-12-14T07:04:40.393Z,86.50
2018-12-14T07:07:06.312Z,87.72
2018-12-14T07:09:32.825Z,86.78
2018-12-14T07:11:58.676Z,87.45
2018-12-14T07:14:24.547Z,86.69
2018-12-14T07:16:50.505Z,86.46
2018-12-14T07:19:16.514Z,86.87
2018-12-14T07:21:42.390Z,86.87
2018-12-14T07:24:08.385Z,86.27
2018-12-14T07:26:34.593Z,86.30
2018-12-14T07:29:00.907Z,86.62
2018-12-14T07:31:26.764Z,86.60
2018-12-14T07:33:52.642Z,86.43
2018-12-14T07:36:18.601Z,86.31
2018-12-14T07:38:48.144Z,85.49
2018-12-14T07:41:12.519Z,86.09
2018-12-14T07:43:38.416Z,85.92
2018-12-14T07:46:04.391Z,85.67
2018-12-14T07:48:30.255Z,85.44
2018-12-14T07:50:56.149Z,85.45
2018-12-14T07:53:22.087Z,85.01
2018-12-14T07:55:47.963Z,85.25
2018-12-14T07:58:13.820Z,85.31
2018-12-14T08:00:39.732Z,85.05
2018-12-14T08:03:05.575Z,85.12
2018-12-14T08:05:31.450Z,84.45
2018-12-14T08:07:57.362Z,84.51
2018-12-14T08:10:23.474Z,84.31
2018-12-14T08:12:49.990Z,84.03
2018-12-14T08:15:16.206Z,84.58
2018-12-14T08:17:42.082Z,84.31
2018-12-14T08:20:07.991Z,84.27
2018-12-14T08:22:33.974Z,84.19
2018-12-14T08:24:59.847Z,83.39
2018-12-14T08:27:25.718Z,83.75
2018-12-14T08:29:51.908Z,83.81
2018-12-14T08:32:18.022Z,83.23
2018-12-14T08:34:43.899Z,83.34
2018-12-14T08:37:09.848Z,83.18
2018-12-14T08:39:35.735Z,83.25
2018-12-14T08:42:01.594Z,82.95
2018-12-14T08:44:27.534Z,82.72
2018-12-14T08:46:53.378Z,82.59
2018-12-14T08:49:19.302Z,82.43
2018-12-14T08:51:45.201Z,82.44
2018-12-14T08:54:11.110Z,82.33
2018-12-14T08:56:36.981Z,82.23
2018-12-14T08:59:02.902Z,81.92
2018-12-14T09:01:28.797Z,81.94
2018-12-14T09:03:54.740Z,81.46
2018-12-14T09:06:20.722Z,81.23
2018-12-14T09:08:46.620Z,81.53
2018-12-14T09:11:13.513Z,81.90
2018-12-14T09:13:39.438Z,81.72
2018-12-14T09:16:05.348Z,81.15
2018-12-14T09:18:31.958Z,80.87
2018-12-14T09:21:01.079Z,80.70
2018-12-14T09:23:25.795Z,81.44
2018-12-14T09:25:51.855Z,80.62
2018-12-14T09:28:17.680Z,81.54
2018-12-14T09:30:43.582Z,81.19
2018-12-14T09:33:09.460Z,80.94
2018-12-14T09:35:35.399Z,81.35
2018-12-14T09:38:01.280Z,81.28
2018-12-14T09:43:07.314Z,80.71
2018-12-14T09:45:33.197Z,80.54
2018-12-14T09:47:59.026Z,80.64
2018-12-14T09:50:24.897Z,80.86
2018-12-14T09:52:50.779Z,81.08
2018-12-14T09:55:16.661Z,80.59
2018-12-14T09:57:42.592Z,80.88
2018-12-14T10:00:08.595Z,81.21
2018-12-14T10:02:34.490Z,80.51
2018-12-14T10:05:00.361Z,80.82
2018-12-14T10:07:26.218Z,81.43
2018-12-14T10:09:52.074Z,80.74
2018-12-14T10:12:17.899Z,80.83
2018-12-14T10:14:43.722Z,80.84
2018-12-14T10:17:09.558Z,81.33
2018-12-14T10:19:35.403Z,81.27
2018-12-14T10:22:08.397Z,81.09
2018-12-14T10:24:34.355Z,81.20
2018-12-14T10:27:00.189Z,81.21
2018-12-14T10:29:26.086Z,81.23
2018-12-14T10:31:51.947Z,81.67
2018-12-14T10:34:17.810Z,81.27
2018-12-14T10:36:43.677Z,81.22
2018-12-14T10:39:09.514Z,81.55
2018-12-14T10:41:35.363Z,81.39
2018-12-14T10:44:07.236Z,81.33
2018-12-14T10:46:29.442Z,81.08
2018-12-14T10:48:55.307Z,81.98
2018-12-14T10:51:21.151Z,81.50
2018-12-14T10:53:46.989Z,81.44
2018-12-14T10:56:12.847Z,81.51
2018-12-14T10:58:38.702Z,82.13
2018-12-14T11:01:14.255Z,82.38
2018-12-14T11:06:31.399Z,82.49
2018-12-14T11:08:57.255Z,82.32
2018-12-14T11:11:23.221Z,82.94
2018-12-14T11:13:49.229Z,82.79
2018-12-14T11:16:15.095Z,83.10
2018-12-14T11:18:40.977Z,83.32
2018-12-14T11:21:06.834Z,82.73
2018-12-14T11:23:32.700Z,83.24
2018-12-14T11:25:58.602Z,83.60
2018-12-14T11:28:24.451Z,84.07
2018-12-14T11:30:50.316Z,83.91
2018-12-14T11:33:16.326Z,84.57
2018-12-14T11:35:42.211Z,84.09
2018-12-14T11:38:08.179Z,84.57
2018-12-14T11:40:34.085Z,83.92
2018-12-14T11:42:59.974Z,83.99
2018-12-14T11:45:25.849Z,84.06
2018-12-14T11:47:51.739Z,84.01
2018-12-14T11:50:17.609Z,84.28
2018-12-14T11:52:43.529Z,84.28
2018-12-14T11:55:09.410Z,83.62
2018-12-14T11:57:35.264Z,83.61
2018-12-14T12:00:01.199Z,83.94
2018-12-14T12:02:27.165Z,83.41
2018-12-14T12:04:52.995Z,83.65
2018-12-14T12:07:18.866Z,83.42
2018-12-14T12:09:44.747Z,83.42
2018-12-14T12:12:10.610Z,83.72
2018-12-14T12:14:36.477Z,83.53
2018-12-14T12:17:02.465Z,83.58
2018-12-14T12:19:28.334Z,83.18
2018-12-14T12:21:54.227Z,83.67
2018-12-14T12:24:20.313Z,83.95
2018-12-14T12:26:46.171Z,82.73
2018-12-14T12:29:12.027Z,83.53
2018-12-14T12:31:44.860Z,83.22
2018-12-14T12:34:10.718Z,83.16
2018-12-14T12:36:36.773Z,83.29
2018-12-14T12:39:04.426Z,83.54
2018-12-14T12:41:30.326Z,83.40
2018-12-14T12:43:56.206Z,83.38
2018-12-14T12:46:22.114Z,83.45
2018-12-14T12:48:48.164Z,82.77
2018-12-14T12:51:14.142Z,83.16
2018-12-14T12:53:40.027Z,83.34
2018-12-14T12:56:05.879Z,83.48
2018-12-14T12:58:31.688Z,84.00
2018-12-14T13:00:57.545Z,83.58
2018-12-14T13:03:23.453Z,83.63
2018-12-14T13:05:49.330Z,83.92
2018-12-14T13:08:15.184Z,82.95
2018-12-14T13:10:41.065Z,82.83
2018-12-14T13:13:06.891Z,83.11
2018-12-14T13:15:32.741Z,83.34
2018-12-14T13:17:58.628Z,82.54
2018-12-14T13:20:24.494Z,82.98
2018-12-14T13:22:50.411Z,82.82
2018-12-14T13:25:23.251Z,82.28
2018-12-14T13:27:49.219Z,82.53
2018-12-14T13:30:15.113Z,82.85
2018-12-14T13:32:41.035Z,82.42
2018-12-14T13:35:06.886Z,82.00
2018-12-14T13:37:32.893Z,81.20
2018-12-14T13:39:58.773Z,81.33
2018-12-14T13:42:24.751Z,81.54
2018-12-14T13:44:51.041Z,81.68
2018-12-14T13:47:17.168Z,82.17
2018-12-14T13:49:43.064Z,81.66
2018-12-14T13:52:09.038Z,82.30
2018-12-14T13:54:34.924Z,81.71
2018-12-14T13:57:00.842Z,82.62
2018-12-14T13:59:26.695Z,82.73
2018-12-14T14:01:52.546Z,82.81
2018-12-14T14:04:18.414Z,82.16
2018-12-14T14:06:44.317Z,82.84
2018-12-14T14:09:10.239Z,82.60
2018-12-14T14:11:36.134Z,82.83
2018-12-14T14:14:02.091Z,81.99
2018-12-14T14:16:27.957Z,81.00
2018-12-14T14:18:53.944Z,81.16
2018-12-14T14:21:19.929Z,80.93
2018-12-14T14:23:45.839Z,81.51
2018-12-14T14:26:11.730Z,82.08
2018-12-14T14:28:37.585Z,82.55
2018-12-14T14:31:03.465Z,82.19
2018-12-14T14:33:29.354Z,82.53
2018-12-14T14:35:55.465Z,82.29
2018-12-14T14:38:21.356Z,82.42
2018-12-14T14:40:47.276Z,82.96
2018-12-14T14:43:13.162Z,82.78
2018-12-14T14:45:39.117Z,82.96
2018-12-14T14:48:05.025Z,83.53
2018-12-14T14:53:25.793Z,83.40
2018-12-14T14:55:51.665Z,83.49
2018-12-14T14:58:17.545Z,84.13
2018-12-14T15:00:43.570Z,84.03
2018-12-14T15:03:09.745Z,84.34
2018-12-14T15:05:35.686Z,84.41
2018-12-14T15:08:01.555Z,84.21
2018-12-14T15:10:27.418Z,84.83
2018-12-14T15:12:53.304Z,84.34
2018-12-14T15:15:19.215Z,84.21
2018-12-14T15:17:45.196Z,84.66
2018-12-14T15:20:11.109Z,84.09
2018-12-14T15:22:36.974Z,84.51
2018-12-14T15:25:03.073Z,85.03
2018-12-14T15:27:29.023Z,85.81
2018-12-14T15:29:54.978Z,85.71
2018-12-14T15:32:21.173Z,85.70
2018-12-14T15:34:47.040Z,86.24
2018-12-14T15:37:12.980Z,86.26
2018-12-14T15:39:38.857Z,86.16
2018-12-14T15:42:04.789Z,85.16
2018-12-14T15:44:30.712Z,85.97
2018-12-14T15:46:56.628Z,85.98
2018-12-14T15:49:22.591Z,85.99
2018-12-14T15:51:48.499Z,86.12
2018-12-14T15:54:14.436Z,86.43
2018-12-14T15:56:40.317Z,86.73
2018-12-14T15:59:06.281Z,85.91
2018-12-14T16:01:32.203Z,85.98
2018-12-14T16:03:58.123Z,85.72
2018-12-14T16:06:24.018Z,86.49
2018-12-14T16:08:49.938Z,86.26
2018-12-14T16:11:15.838Z,86.14
2018-12-14T16:13:41.744Z,86.35
2018-12-14T16:16:07.646Z,86.12
2018-12-14T16:18:33.575Z,86.48
2018-12-14T16:20:59.604Z,86.33
2018-12-14T16:23:25.563Z,86.42
2018-12-14T16:25:52.583Z,85.62
2018-12-14T16:28:18.613Z,86.05
2018-12-14T16:30:44.515Z,85.62
2018-12-14T16:33:10.450Z,86.18
2018-12-14T16:35:43.475Z,86.25
2018-12-14T16:38:09.383Z,86.24
2018-12-14T16:40:35.273Z,86.18
2018-12-14T16:43:01.145Z,84.82
2018-12-14T16:45:27.058Z,85.71
2018-12-14T16:47:53.895Z,85.60
2018-12-14T16:50:19.769Z,85.56
2018-12-14T16:52:47.611Z,85.04
2018-12-14T16:55:13.873Z,84.85
2018-12-14T16:57:39.782Z,84.86
2018-12-14T17:00:06.877Z,85.01
2018-12-14T17:02:32.781Z,85.06
2018-12-14T17:04:58.658Z,84.78
2018-12-14T17:07:24.665Z,84.81
2018-12-14T17:09:50.659Z,84.84
2018-12-14T17:12:16.764Z,84.94
2018-12-14T17:14:42.677Z,84.99
2018-12-14T17:17:08.550Z,84.98
2018-12-14T17:19:34.440Z,85.37
2018-12-14T17:22:00.310Z,85.23
2018-12-14T17:24:26.272Z,85.30
2018-12-14T17:26:52.878Z,85.01
2018-12-14T17:29:18.958Z,85.18
2018-12-14T17:31:44.885Z,84.76
2018-12-14T17:34:11.501Z,84.31
2018-12-14T17:36:38.320Z,84.16
2018-12-14T17:39:04.828Z,84.77
2018-12-14T17:41:30.731Z,84.00
2018-12-14T17:43:57.694Z,83.67
2018-12-14T17:46:23.667Z,83.65
2018-12-14T17:48:49.570Z,83.80
2018-12-14T17:51:15.465Z,82.92
2018-12-14T17:53:41.740Z,82.77
2018-12-14T17:56:07.657Z,82.87
2018-12-14T17:58:33.534Z,82.73
2018-12-14T18:00:59.461Z,82.76
2018-12-14T18:03:25.361Z,83.24
2018-12-14T18:05:51.864Z,82.92
2018-12-14T18:08:17.770Z,83.11
2018-12-14T18:10:43.706Z,82.76
2018-12-14T18:13:09.731Z,82.64
2018-12-14T18:15:35.585Z,82.36
2018-12-14T18:18:01.492Z,82.41
2018-12-14T18:20:27.444Z,82.81
2018-12-14T18:22:53.660Z,82.55
2018-12-14T18:25:20.019Z,82.52
2018-12-14T18:27:46.019Z,82.08
2018-12-14T18:30:12.045Z,82.96
2018-12-14T18:32:37.910Z,82.82
2018-12-14T18:35:04.922Z,82.71
2018-12-14T18:37:30.901Z,83.17
2018-12-14T18:39:56.840Z,82.67
2018-12-14T18:42:22.778Z,82.48
2018-12-14T18:44:48.748Z,82.68
2018-12-14T18:47:14.784Z,83.07
2018-12-14T18:49:40.848Z,82.82
2018-12-14T18:52:06.759Z,83.00
2018-12-14T18:54:33.047Z,83.25
2018-12-14T18:56:58.975Z,83.00
2018-12-14T18:59:25.219Z,83.20
2018-12-14T19:01:51.597Z,83.48
2018-12-14T19:04:17.538Z,83.54
2018-12-14T19:06:43.512Z,83.72
2018-12-14T19:09:09.455Z,83.69
2018-12-14T19:11:35.369Z,83.15
2018-12-14T19:14:01.425Z,82.55
2018-12-14T19:16:27.355Z,82.92
2018-12-14T19:18:53.235Z,82.42
2018-12-14T19:21:19.116Z,82.25
2018-12-14T19:23:45.106Z,82.10
2018-12-14T19:26:11.076Z,82.90
2018-12-14T19:28:37.230Z,82.34
2018-12-14T19:31:03.192Z,82.94
2018-12-14T19:33:29.208Z,83.30
2018-12-14T19:35:55.175Z,82.98
2018-12-14T19:38:21.211Z,83.11
2018-12-14T19:40:47.135Z,82.80
2018-12-14T19:43:13.002Z,83.10
2018-12-14T19:45:38.926Z,83.29
2018-12-14T19:48:04.826Z,82.67
2018-12-14T19:50:30.727Z,82.45
2018-12-14T19:52:56.666Z,81.99
2018-12-14T19:55:22.669Z,82.36
2018-12-14T19:57:48.655Z,82.31
2018-12-14T20:00:14.709Z,82.27
2018-12-14T20:02:40.748Z,82.62
2018-12-14T20:05:07.251Z,82.85
2018-12-14T20:07:33.151Z,83.02
2018-12-14T20:09:59.059Z,81.86
2018-12-14T20:12:24.953Z,81.60
2018-12-14T20:14:50.862Z,81.79
2018-12-14T20:17:16.969Z,81.74
2018-12-14T20:19:42.841Z,81.60
2018-12-14T20:22:15.812Z,82.38
2018-12-14T20:24:41.697Z,81.62
2018-12-14T20:27:07.714Z,81.92
2018-12-14T20:29:33.607Z,82.33
2018-12-14T20:31:59.488Z,81.42
2018-12-14T20:34:25.394Z,80.92
2018-12-14T20:36:51.332Z,80.80
2018-12-14T20:39:17.354Z,79.98
2018-12-14T20:41:43.278Z,80.81
2018-12-14T20:44:09.233Z,80.77
2018-12-14T20:46:35.264Z,80.97
2018-12-14T20:49:01.181Z,80.98
2018-12-14T20:51:27.157Z,80.48
2018-12-14T20:53:53.054Z,79.75
2018-12-14T20:56:18.995Z,79.85
2018-12-14T20:58:44.952Z,80.83
2018-12-14T21:01:10.859Z,80.62
2018-12-14T21:03:36.782Z,80.98
2018-12-14T21:06:02.758Z,80.75
2018-12-14T21:08:28.764Z,80.89
2018-12-14T21:10:54.618Z,81.17
2018-12-14T21:13:20.566Z,80.72
2018-12-14T21:15:46.480Z,80.90
2018-12-14T21:18:12.387Z,80.37
2018-12-14T21:20:38.469Z,80.03
2018-12-14T21:23:04.438Z,80.47
2018-12-14T21:25:30.299Z,80.97
2018-12-14T21:27:56.195Z,80.72
2018-12-14T21:30:22.071Z,80.52
2018-12-14T21:32:47.906Z,80.83
2018-12-14T21:35:13.787Z,80.96
2018-12-14T21:37:46.618Z,81.07
2018-12-14T21:40:12.539Z,81.13
2018-12-14T21:42:38.402Z,81.50
2018-12-14T21:45:05.721Z,81.29
2018-12-14T21:47:31.672Z,81.43
2018-12-14T21:49:57.597Z,81.74
2018-12-14T21:52:23.528Z,81.69
2018-12-14T21:54:49.413Z,81.53
2018-12-14T21:57:15.368Z,82.12
2018-12-14T21:59:41.225Z,81.73
2018-12-14T22:02:07.203Z,81.53
2018-12-14T22:04:33.243Z,81.95
2018-12-14T22:06:59.160Z,82.08
2018-12-14T22:09:25.081Z,82.11
2018-12-14T22:11:51.104Z,82.21
2018-12-14T22:14:17.000Z,82.43
2018-12-14T22:16:42.885Z,82.08
2018-12-14T22:19:08.818Z,81.86
2018-12-14T22:21:34.683Z,81.80
2018-12-14T22:24:00.562Z,82.51
2018-12-14T22:26:26.430Z,82.52
2018-12-14T22:28:52.275Z,82.42
2018-12-14T22:31:18.140Z,82.33
2018-12-14T22:33:43.991Z,82.99
2018-12-14T22:36:09.910Z,83.26
2018-12-14T22:38:35.811Z,83.43
2018-12-14T22:41:01.748Z,83.50
2018-12-14T22:43:27.606Z,83.64
2018-12-14T22:45:53.504Z,83.13
2018-12-14T22:48:19.377Z,82.94
2018-12-14T22:50:45.405Z,83.50
2018-12-14T22:53:11.284Z,83.51
2018-12-14T22:55:37.178Z,83.56
2018-12-14T22:58:03.104Z,82.87
2018-12-14T23:00:29.086Z,83.47
2018-12-14T23:02:54.976Z,82.82
2018-12-14T23:05:20.945Z,83.03
2018-12-14T23:07:46.857Z,83.03
2018-12-14T23:10:12.873Z,82.41
2018-12-14T23:12:38.781Z,82.30
2018-12-14T23:15:05.496Z,82.09
2018-12-14T23:17:31.400Z,82.11
2018-12-14T23:19:57.329Z,82.69
2018-12-14T23:22:23.239Z,82.35
2018-12-14T23:24:49.182Z,82.62
2018-12-14T23:27:15.085Z,81.79
2018-12-14T23:29:40.972Z,81.05
2018-12-14T23:32:07.078Z,81.71
2018-12-14T23:34:32.966Z,81.23
2018-12-14T23:36:58.874Z,81.66
2018-12-14T23:39:24.779Z,81.27
2018-12-14T23:41:50.644Z,81.44
2018-12-14T23:44:16.514Z,81.24
2018-12-14T23:46:42.508Z,81.25
2018-12-14T23:49:08.459Z,80.86
2018-12-14T23:51:34.424Z,81.01
2018-12-14T23:54:00.403Z,81.36
2018-12-14T23:56:26.398Z,80.86
2018-12-14T23:58:53.007Z,81.26
